createdAt,value
2023-05-14T00:01:03.822Z,8.50
2023-05-14T00:03:37.065Z,8.50
2023-05-14T00:06:10.948Z,8.00
2023-05-14T00:08:42.738Z,9.10
2023-05-14T00:11:14.697Z,8.50
2023-05-14T00:13:46.432Z,8.80
2023-05-14T00:16:18.416Z,8.10
2023-05-14T00:18:50.339Z,8.30
2023-05-14T00:21:22.131Z,7.40
2023-05-14T00:23:53.986Z,7.60
2023-05-14T00:26:25.879Z,8.20
2023-05-14T00:28:57.746Z,7.70
2023-05-14T00:31:29.696Z,8.90
2023-05-14T00:34:01.510Z,9.40
2023-05-14T00:36:33.521Z,7.90
2023-05-14T00:39:05.475Z,8.40
2023-05-14T00:41:37.413Z,8.90
2023-05-14T00:44:09.323Z,8.10
2023-05-14T00:46:41.200Z,8.10
2023-05-14T00:49:13.068Z,8.50
2023-05-14T00:51:47.006Z,8.20
2023-05-14T00:54:19.739Z,8.10
2023-05-14T00:56:51.610Z,8.40
2023-05-14T00:59:23.422Z,7.00
2023-05-14T01:01:55.482Z,7.80
2023-05-14T01:04:27.672Z,7.00
2023-05-14T01:07:09.757Z,7.00
2023-05-14T01:09:45.788Z,7.50
2023-05-14T01:12:22.870Z,7.20
2023-05-14T01:14:59.031Z,7.10
2023-05-14T01:17:32.563Z,7.10
2023-05-14T01:20:05.342Z,6.90
2023-05-14T01:22:37.741Z,6.80
2023-05-14T01:25:11.503Z,7.80
2023-05-14T01:27:47.608Z,7.80
2023-05-14T01:30:23.392Z,7.40
2023-05-14T01:32:57.865Z,8.00
2023-05-14T01:35:30.748Z,7.70
2023-05-14T01:38:05.265Z,7.80
2023-05-14T01:40:38.853Z,7.90
2023-05-14T01:43:11.736Z,8.20
2023-05-14T01:45:44.872Z,8.30
2023-05-14T01:48:16.794Z,7.90
2023-05-14T01:50:48.751Z,7.90
2023-05-14T01:53:21.012Z,8.30
2023-05-14T01:55:52.936Z,8.20
2023-05-14T01:58:24.885Z,8.10
2023-05-14T02:00:56.771Z,8.30
2023-05-14T02:03:28.949Z,8.40
2023-05-14T02:06:00.894Z,8.50
2023-05-14T02:08:32.719Z,8.00
2023-05-14T02:11:04.631Z,9.20
2023-05-14T02:13:37.526Z,7.30
2023-05-14T02:16:10.532Z,6.90
2023-05-14T02:18:42.424Z,8.90
2023-05-14T02:21:14.281Z,7.60
2023-05-14T02:23:46.049Z,8.10
2023-05-14T02:26:17.834Z,8.30
2023-05-14T02:28:49.724Z,8.60
2023-05-14T02:31:21.545Z,7.80
2023-05-14T02:33:53.363Z,8.40
2023-05-14T02:36:25.185Z,8.30
2023-05-14T02:38:57.029Z,8.60
2023-05-14T02:41:29.377Z,7.60
2023-05-14T02:44:01.140Z,8.00
2023-05-14T02:46:33.515Z,7.40
2023-05-14T02:49:06.916Z,8.40
2023-05-14T02:51:38.779Z,8.20
2023-05-14T02:54:10.572Z,8.70
2023-05-14T02:56:42.373Z,9.50
2023-05-14T02:59:14.548Z,8.10
2023-05-14T03:01:47.258Z,8.30
2023-05-14T03:04:19.666Z,8.70
2023-05-14T03:06:51.599Z,8.30
2023-05-14T03:09:23.344Z,8.20
2023-05-14T03:11:56.129Z,7.90
2023-05-14T03:14:28.110Z,8.40
2023-05-14T03:17:00.178Z,9.10
2023-05-14T03:19:32.063Z,8.20
2023-05-14T03:22:04.067Z,8.10
2023-05-14T03:24:36.470Z,7.70
2023-05-14T03:27:08.818Z,7.80
2023-05-14T03:29:40.610Z,7.30
2023-05-14T03:32:12.759Z,7.80
2023-05-14T03:34:45.082Z,7.00
2023-05-14T03:37:16.984Z,8.70
2023-05-14T03:39:48.850Z,8.30
2023-05-14T03:42:20.706Z,8.20
2023-05-14T03:44:52.858Z,7.90
2023-05-14T03:47:24.661Z,8.30
2023-05-14T03:49:57.881Z,8.70
2023-05-14T03:52:29.719Z,7.80
2023-05-14T03:55:01.461Z,8.00
2023-05-14T03:57:33.417Z,8.00
2023-05-14T04:00:05.419Z,7.80
2023-05-14T04:02:48.551Z,7.60
2023-05-14T04:05:20.965Z,8.50
2023-05-14T04:07:53.054Z,9.10
2023-05-14T04:10:25.615Z,8.60
2023-05-14T04:12:58.708Z,8.00
2023-05-14T04:15:35.814Z,8.20
2023-05-14T04:18:08.167Z,7.40
2023-05-14T04:20:40.658Z,7.70
2023-05-14T04:23:12.779Z,8.70
2023-05-14T04:25:44.805Z,8.80
2023-05-14T04:28:16.730Z,8.20
2023-05-14T04:30:48.542Z,7.70
2023-05-14T04:33:20.440Z,7.40
2023-05-14T04:35:52.789Z,8.50
2023-05-14T04:38:24.597Z,7.50
2023-05-14T04:40:57.056Z,7.60
2023-05-14T04:43:28.812Z,7.60
2023-05-14T04:46:00.720Z,6.80
2023-05-14T04:48:32.815Z,7.00
2023-05-14T04:51:06.966Z,6.80
2023-05-14T04:53:39.073Z,6.60
2023-05-14T04:56:11.118Z,6.00
2023-05-14T04:58:42.973Z,7.30
2023-05-14T05:01:15.738Z,6.30
2023-05-14T05:03:48.138Z,7.00
2023-05-14T05:06:22.579Z,5.80
2023-05-14T05:08:54.631Z,5.90
2023-05-14T05:11:26.394Z,6.40
2023-05-14T05:13:58.181Z,5.00
2023-05-14T05:16:31.698Z,5.90
2023-05-14T05:19:03.753Z,5.40
2023-05-14T05:21:35.660Z,5.30
2023-05-14T05:24:08.201Z,5.00
2023-05-14T05:26:40.094Z,4.90
2023-05-14T05:29:12.009Z,4.90
2023-05-14T05:31:44.223Z,5.00
2023-05-14T05:34:16.432Z,4.20
2023-05-14T05:36:48.256Z,4.90
2023-05-14T05:39:20.046Z,4.70
2023-05-14T05:41:52.013Z,4.30
2023-05-14T05:44:23.757Z,5.30
2023-05-14T05:46:57.394Z,5.30
2023-05-14T05:49:29.536Z,4.70
2023-05-14T05:52:01.355Z,4.60
2023-05-14T05:54:33.534Z,3.90
2023-05-14T05:57:05.572Z,4.10
2023-05-14T05:59:37.729Z,4.00
2023-05-14T06:02:09.705Z,4.60
2023-05-14T06:04:42.065Z,3.70
2023-05-14T06:07:14.224Z,4.30
2023-05-14T06:09:46.506Z,4.00
2023-05-14T06:12:18.419Z,4.00
2023-05-14T06:14:50.264Z,3.50
2023-05-14T06:17:22.269Z,3.60
2023-05-14T06:19:54.230Z,3.40
2023-05-14T06:22:25.996Z,3.40
2023-05-14T06:24:57.915Z,3.60
2023-05-14T06:27:29.801Z,3.80
2023-05-14T06:30:01.732Z,3.60
2023-05-14T06:32:33.656Z,3.90
2023-05-14T06:35:06.650Z,3.80
2023-05-14T06:37:38.598Z,3.80
2023-05-14T06:40:13.185Z,3.60
2023-05-14T06:42:45.029Z,3.60
2023-05-14T06:45:16.885Z,3.60
2023-05-14T06:47:49.092Z,4.10
2023-05-14T06:50:21.905Z,3.30
2023-05-14T06:52:54.027Z,3.50
2023-05-14T06:55:26.128Z,3.10
2023-05-14T06:57:57.908Z,3.20
2023-05-14T07:00:31.288Z,3.40
2023-05-14T07:03:03.087Z,3.50
2023-05-14T07:05:35.080Z,3.60
2023-05-14T07:08:07.363Z,3.40
2023-05-14T07:10:40.033Z,3.60
2023-05-14T07:13:12.918Z,3.00
2023-05-14T07:15:44.842Z,3.80
2023-05-14T07:18:16.961Z,3.30
2023-05-14T07:20:48.881Z,3.70
2023-05-14T07:23:20.746Z,3.60
2023-05-14T07:25:53.210Z,3.60
2023-05-14T07:28:25.062Z,3.30
2023-05-14T07:30:57.023Z,3.10
2023-05-14T07:33:29.034Z,3.10
2023-05-14T07:36:00.842Z,3.30
2023-05-14T07:38:32.805Z,2.70
2023-05-14T07:41:05.077Z,3.20
2023-05-14T07:43:38.514Z,2.30
2023-05-14T07:48:40.801Z,2.60
2023-05-14T07:51:13.055Z,2.20
2023-05-14T07:53:44.968Z,2.20
2023-05-14T07:56:16.907Z,2.60
2023-05-14T07:58:48.742Z,2.10
2023-05-14T08:01:20.877Z,2.60
2023-05-14T08:03:52.981Z,2.30
2023-05-14T08:06:27.645Z,2.30
2023-05-14T08:08:59.611Z,1.90
2023-05-14T08:11:31.399Z,2.00
2023-05-14T08:14:03.373Z,2.30
2023-05-14T08:16:35.553Z,2.30
2023-05-14T08:19:07.459Z,1.80
2023-05-14T08:21:39.932Z,2.50
2023-05-14T08:24:12.415Z,2.50
2023-05-14T08:26:44.193Z,2.30
2023-05-14T08:29:16.656Z,3.00
2023-05-14T08:31:49.347Z,2.40
2023-05-14T08:34:21.336Z,1.90
2023-05-14T08:36:53.155Z,2.20
2023-05-14T08:39:24.973Z,2.30
2023-05-14T08:41:58.407Z,2.70
2023-05-14T08:44:34.988Z,2.00
2023-05-14T08:47:07.195Z,3.30
2023-05-14T08:49:45.047Z,2.50
2023-05-14T08:52:18.946Z,2.30
2023-05-14T08:54:52.646Z,2.40
2023-05-14T08:59:57.386Z,2.40
2023-05-14T09:02:31.309Z,2.50
2023-05-14T09:05:04.544Z,2.30
2023-05-14T09:07:36.569Z,2.00
2023-05-14T09:10:10.579Z,2.00
2023-05-14T09:12:42.587Z,2.50
2023-05-14T09:15:14.759Z,2.20
2023-05-14T09:17:48.084Z,2.00
2023-05-14T09:20:20.096Z,2.10
2023-05-14T09:22:56.756Z,2.20
2023-05-14T09:25:30.820Z,2.60
2023-05-14T09:28:02.704Z,2.30
2023-05-14T09:30:37.155Z,2.40
2023-05-14T09:33:10.527Z,1.90
2023-05-14T09:35:43.590Z,2.10
2023-05-14T09:38:15.609Z,2.10
2023-05-14T09:40:48.844Z,2.10
2023-05-14T09:43:20.934Z,1.90
2023-05-14T09:45:52.834Z,2.10
2023-05-14T09:48:24.749Z,2.10
2023-05-14T09:50:56.673Z,2.10
2023-05-14T09:53:28.586Z,2.10
2023-05-14T09:56:00.719Z,2.30
2023-05-14T09:58:32.483Z,2.10
2023-05-14T10:01:04.746Z,2.00
2023-05-14T10:03:37.478Z,2.00
2023-05-14T10:06:10.744Z,1.90
2023-05-14T10:08:45.346Z,2.10
2023-05-14T10:11:22.426Z,2.00
2023-05-14T10:14:00.380Z,2.00
2023-05-14T10:16:35.519Z,1.90
2023-05-14T10:19:11.568Z,2.00
2023-05-14T10:21:46.352Z,2.00
2023-05-14T10:24:18.950Z,2.00
2023-05-14T10:26:51.210Z,2.90
2023-05-14T10:29:23.333Z,3.00
2023-05-14T10:31:56.489Z,2.90
2023-05-14T10:34:41.274Z,1.90
2023-05-14T10:37:15.576Z,2.00
2023-05-14T10:39:50.578Z,2.40
2023-05-14T10:42:25.214Z,2.20
2023-05-14T10:44:59.007Z,2.20
2023-05-14T10:47:31.268Z,2.10
2023-05-14T10:50:05.592Z,2.30
2023-05-14T10:52:37.991Z,2.00
2023-05-14T10:55:13.477Z,2.00
2023-05-14T10:57:47.291Z,2.10
2023-05-14T11:00:20.725Z,2.00
2023-05-14T11:02:52.673Z,2.10
2023-05-14T11:05:27.646Z,2.30
2023-05-14T11:08:00.661Z,2.00
2023-05-14T11:10:32.515Z,2.00
2023-05-14T11:13:04.454Z,2.10
2023-05-14T11:15:36.468Z,1.90
2023-05-14T11:18:08.348Z,2.10
2023-05-14T11:20:40.598Z,2.30
2023-05-14T11:23:12.584Z,2.40
2023-05-14T11:25:45.487Z,2.40
2023-05-14T11:28:17.835Z,4.00
2023-05-14T11:30:50.038Z,1.90
2023-05-14T11:33:22.332Z,2.80
2023-05-14T11:35:54.216Z,3.60
2023-05-14T11:38:26.091Z,2.50
2023-05-14T11:40:59.317Z,2.50
2023-05-14T11:43:31.202Z,1.90
2023-05-14T11:46:03.063Z,2.60
2023-05-14T11:48:35.061Z,2.10
2023-05-14T11:51:07.195Z,2.00
2023-05-14T11:53:39.034Z,2.20
2023-05-14T11:56:11.465Z,2.60
2023-05-14T11:58:48.322Z,1.90
2023-05-14T12:01:20.283Z,2.00
2023-05-14T12:03:54.347Z,1.90
2023-05-14T12:06:33.239Z,1.90
2023-05-14T12:09:07.789Z,1.90
2023-05-14T12:11:40.258Z,2.10
2023-05-14T12:14:17.781Z,1.70
2023-05-14T12:16:49.954Z,1.90
2023-05-14T12:19:23.591Z,1.90
2023-05-14T12:24:28.400Z,2.00
2023-05-14T12:27:04.270Z,1.80
2023-05-14T12:29:39.881Z,1.60
2023-05-14T12:32:12.329Z,1.50
2023-05-14T12:34:44.134Z,1.90
2023-05-14T12:37:15.960Z,1.60
2023-05-14T12:39:47.811Z,1.90
2023-05-14T12:42:20.232Z,1.80
2023-05-14T12:44:52.567Z,1.70
2023-05-14T12:47:24.636Z,1.80
2023-05-14T12:49:56.556Z,2.20
2023-05-14T12:52:37.866Z,1.70
2023-05-14T12:55:12.270Z,1.80
2023-05-14T12:57:44.426Z,1.90
2023-05-14T13:00:17.451Z,1.60
2023-05-14T13:02:49.285Z,1.70
2023-05-14T13:05:21.478Z,1.60
2023-05-14T13:07:55.130Z,1.70
2023-05-14T13:10:26.866Z,1.60
2023-05-14T13:12:58.762Z,1.80
2023-05-14T13:15:31.753Z,1.80
2023-05-14T13:18:03.817Z,2.00
2023-05-14T13:20:35.833Z,1.60
2023-05-14T13:23:07.616Z,2.00
2023-05-14T13:25:39.459Z,1.80
2023-05-14T13:28:11.313Z,2.10
2023-05-14T13:30:43.316Z,2.10
2023-05-14T13:33:15.117Z,1.90
2023-05-14T13:35:46.971Z,1.70
2023-05-14T13:38:18.744Z,1.90
2023-05-14T13:40:50.580Z,1.90
2023-05-14T13:43:22.420Z,2.00
2023-05-14T13:45:54.284Z,1.70
2023-05-14T13:48:27.127Z,1.60
2023-05-14T13:50:59.291Z,1.70
2023-05-14T13:53:31.615Z,2.20
2023-05-14T13:56:03.509Z,1.80
2023-05-14T13:58:35.476Z,1.80
2023-05-14T14:01:07.778Z,2.00
2023-05-14T14:03:39.806Z,1.40
2023-05-14T14:06:11.914Z,2.00
2023-05-14T14:08:43.846Z,1.80
2023-05-14T14:11:16.930Z,2.20
2023-05-14T14:13:48.751Z,2.00
2023-05-14T14:16:20.959Z,1.70
2023-05-14T14:18:52.936Z,1.90
2023-05-14T14:21:25.035Z,1.80
2023-05-14T14:23:56.910Z,2.00
2023-05-14T14:26:29.345Z,1.60
2023-05-14T14:29:01.369Z,2.10
2023-05-14T14:31:34.602Z,1.60
2023-05-14T14:34:06.483Z,1.80
2023-05-14T14:36:38.239Z,2.00
2023-05-14T14:39:10.778Z,1.70
2023-05-14T14:41:42.645Z,1.70
2023-05-14T14:44:15.022Z,1.90
2023-05-14T14:46:46.971Z,1.80
2023-05-14T14:49:18.944Z,1.60
2023-05-14T14:51:50.826Z,1.70
2023-05-14T14:54:22.679Z,1.80
2023-05-14T14:56:54.927Z,2.10
2023-05-14T14:59:26.862Z,1.80
2023-05-14T15:01:58.675Z,1.70
2023-05-14T15:04:34.149Z,1.80
2023-05-14T15:07:06.465Z,1.60
2023-05-14T15:09:38.791Z,1.80
2023-05-14T15:12:11.311Z,1.70
2023-05-14T15:14:43.760Z,1.70
2023-05-14T15:17:15.751Z,1.80
2023-05-14T15:19:47.629Z,2.10
2023-05-14T15:22:19.456Z,1.90
2023-05-14T15:24:52.333Z,2.10
2023-05-14T15:27:24.178Z,2.20
2023-05-14T15:29:56.115Z,2.00
2023-05-14T15:32:28.541Z,2.00
2023-05-14T15:35:01.196Z,3.10
2023-05-14T15:37:38.819Z,3.70
2023-05-14T15:40:12.273Z,2.60
2023-05-14T15:42:44.989Z,2.50
2023-05-14T15:45:17.046Z,2.30
2023-05-14T15:47:48.971Z,2.80
2023-05-14T15:50:20.877Z,2.30
2023-05-14T15:52:52.976Z,1.90
2023-05-14T15:55:25.033Z,2.30
2023-05-14T15:57:56.997Z,1.80
2023-05-14T16:00:28.877Z,1.80
2023-05-14T16:03:00.860Z,2.00
2023-05-14T16:05:32.798Z,3.20
2023-05-14T16:08:04.601Z,2.00
2023-05-14T16:10:36.390Z,1.90
2023-05-14T16:13:08.069Z,2.10
2023-05-14T16:15:39.833Z,1.90
2023-05-14T16:18:11.811Z,1.70
2023-05-14T16:20:43.633Z,2.30
2023-05-14T16:23:15.443Z,2.20
2023-05-14T16:25:47.454Z,1.80
2023-05-14T16:28:19.366Z,2.00
2023-05-14T16:30:51.051Z,1.90
2023-05-14T16:33:22.877Z,2.70
2023-05-14T16:35:54.827Z,1.90
2023-05-14T16:38:26.641Z,1.90
2023-05-14T16:40:58.584Z,2.00
2023-05-14T16:43:30.274Z,2.10
2023-05-14T16:46:02.064Z,2.10
2023-05-14T16:48:33.816Z,2.00
2023-05-14T16:51:05.678Z,2.10
2023-05-14T16:53:37.394Z,1.80
2023-05-14T16:56:11.088Z,1.60
2023-05-14T16:58:43.054Z,1.80
2023-05-14T17:01:14.830Z,1.90
2023-05-14T17:03:46.864Z,1.80
2023-05-14T17:06:18.829Z,2.10
2023-05-14T17:08:50.721Z,1.70
2023-05-14T17:11:24.197Z,1.60
2023-05-14T17:14:03.964Z,2.00
2023-05-14T17:16:35.969Z,1.80
2023-05-14T17:19:06.773Z,1.70
2023-05-14T17:21:38.568Z,1.90
2023-05-14T17:24:10.687Z,2.60
2023-05-14T17:26:42.610Z,1.90
2023-05-14T17:29:14.461Z,1.80
2023-05-14T17:31:46.266Z,2.10
2023-05-14T17:34:18.941Z,2.10
2023-05-14T17:36:50.847Z,2.40
2023-05-14T17:39:22.612Z,1.80
2023-05-14T17:41:54.380Z,2.10
2023-05-14T17:44:26.251Z,2.10
2023-05-14T17:46:58.118Z,2.20
2023-05-14T17:49:29.980Z,1.90
2023-05-14T17:52:01.920Z,2.00
2023-05-14T17:54:33.737Z,1.80
2023-05-14T17:57:06.054Z,2.30
2023-05-14T17:59:37.883Z,2.20
2023-05-14T18:02:09.944Z,2.60
2023-05-14T18:04:41.846Z,2.50
2023-05-14T18:07:13.684Z,3.50
2023-05-14T18:09:45.557Z,2.60
2023-05-14T18:12:17.363Z,2.30
2023-05-14T18:14:49.248Z,2.00
2023-05-14T18:17:21.109Z,2.60
2023-05-14T18:19:53.033Z,2.30
2023-05-14T18:22:28.176Z,2.70
2023-05-14T18:25:02.453Z,2.30
2023-05-14T18:27:34.206Z,2.30
2023-05-14T18:30:07.439Z,2.60
2023-05-14T18:32:39.389Z,2.30
2023-05-14T18:35:14.472Z,2.60
2023-05-14T18:37:46.250Z,2.70
2023-05-14T18:40:18.974Z,2.00
2023-05-14T18:42:51.003Z,2.80
2023-05-14T18:45:24.430Z,3.10
2023-05-14T18:47:56.586Z,2.40
2023-05-14T18:50:29.010Z,2.70
2023-05-14T18:53:01.079Z,3.10
2023-05-14T18:55:33.109Z,2.70
2023-05-14T18:58:04.994Z,2.70
2023-05-14T19:00:37.040Z,2.60
2023-05-14T19:03:09.041Z,2.70
2023-05-14T19:05:41.417Z,2.60
2023-05-14T19:08:15.675Z,3.10
2023-05-14T19:10:47.664Z,3.40
2023-05-14T19:13:19.534Z,3.40
2023-05-14T19:15:51.696Z,3.70
2023-05-14T19:18:23.578Z,3.70
2023-05-14T19:20:57.002Z,3.90
2023-05-14T19:23:31.182Z,3.80
2023-05-14T19:26:04.092Z,3.20
2023-05-14T19:28:38.071Z,3.60
2023-05-14T19:31:10.038Z,3.90
2023-05-14T19:33:42.037Z,3.00
2023-05-14T19:36:14.018Z,3.40
2023-05-14T19:38:46.398Z,3.20
2023-05-14T19:41:18.164Z,3.90
2023-05-14T19:43:50.103Z,3.50
2023-05-14T19:46:22.095Z,3.50
2023-05-14T19:48:53.955Z,3.30
2023-05-14T19:51:26.350Z,2.50
2023-05-14T19:53:58.530Z,2.70
2023-05-14T19:56:30.467Z,3.30
2023-05-14T19:59:02.317Z,2.70
2023-05-14T20:01:35.887Z,3.00
2023-05-14T20:06:40.359Z,2.80
2023-05-14T20:09:12.924Z,3.00
2023-05-14T20:11:44.694Z,3.20
2023-05-14T20:14:16.538Z,3.40
2023-05-14T20:16:49.127Z,3.00
2023-05-14T20:19:22.518Z,3.20
2023-05-14T20:21:54.470Z,2.70
2023-05-14T20:24:26.410Z,2.90
2023-05-14T20:26:58.174Z,2.80
2023-05-14T20:29:30.024Z,2.80
2023-05-14T20:32:01.791Z,2.80
2023-05-14T20:34:33.528Z,2.80
2023-05-14T20:37:06.811Z,3.20
2023-05-14T20:39:38.734Z,2.70
2023-05-14T20:42:10.767Z,2.60
2023-05-14T20:44:42.660Z,2.80
2023-05-14T20:47:17.857Z,2.70
2023-05-14T20:49:49.770Z,3.00
2023-05-14T20:52:22.315Z,3.00
2023-05-14T20:54:54.132Z,3.50
2023-05-14T20:57:26.146Z,2.80
2023-05-14T20:59:57.938Z,2.70
2023-05-14T21:02:30.070Z,3.20
2023-05-14T21:05:03.125Z,3.00
2023-05-14T21:07:36.531Z,2.90
2023-05-14T21:10:10.207Z,2.60
2023-05-14T21:12:42.812Z,2.90
2023-05-14T21:15:16.572Z,3.10
2023-05-14T21:17:48.415Z,2.50
2023-05-14T21:20:20.567Z,2.80
2023-05-14T21:22:52.385Z,2.90
2023-05-14T21:25:25.115Z,2.50
2023-05-14T21:27:57.211Z,2.60
2023-05-14T21:30:28.991Z,2.60
2023-05-14T21:33:00.871Z,2.50
2023-05-14T21:35:32.824Z,2.70
2023-05-14T21:38:04.767Z,3.10
2023-05-14T21:40:36.785Z,2.50
2023-05-14T21:43:08.743Z,2.60
2023-05-14T21:45:40.699Z,2.80
2023-05-14T21:48:12.483Z,2.60
2023-05-14T21:50:44.325Z,2.70
2023-05-14T21:53:16.339Z,2.40
2023-05-14T21:55:49.987Z,2.60
2023-05-14T21:58:21.936Z,2.70
2023-05-14T22:00:53.982Z,2.70
2023-05-14T22:03:25.889Z,3.10
2023-05-14T22:05:57.941Z,2.90
2023-05-14T22:08:31.213Z,2.50
2023-05-14T22:11:03.720Z,2.70
2023-05-14T22:13:37.671Z,2.20
2023-05-14T22:16:13.758Z,2.50
2023-05-14T22:18:47.279Z,2.50
2023-05-14T22:21:19.174Z,2.20
2023-05-14T22:23:51.105Z,2.30
2023-05-14T22:26:22.917Z,2.10
2023-05-14T22:28:55.601Z,2.50
2023-05-14T22:31:27.449Z,2.30
2023-05-14T22:33:59.291Z,2.20
2023-05-14T22:36:31.089Z,2.20
2023-05-14T22:39:03.006Z,1.80
2023-05-14T22:41:34.922Z,2.30
2023-05-14T22:44:06.745Z,2.10
2023-05-14T22:46:38.591Z,2.20
2023-05-14T22:49:10.374Z,2.30
2023-05-14T22:51:42.419Z,1.80
2023-05-14T22:54:14.155Z,1.90
2023-05-14T22:56:46.506Z,2.10
2023-05-14T22:59:18.359Z,2.20
2023-05-14T23:01:50.161Z,1.90
2023-05-14T23:04:22.352Z,2.20
2023-05-14T23:06:54.220Z,1.90
2023-05-14T23:09:26.146Z,1.90
2023-05-14T23:11:57.938Z,1.70
2023-05-14T23:14:29.706Z,1.90
2023-05-14T23:17:01.783Z,1.60
2023-05-14T23:19:33.552Z,1.70
2023-05-14T23:22:05.561Z,1.80
2023-05-14T23:24:37.473Z,1.70
2023-05-14T23:27:09.647Z,1.60
2023-05-14T23:29:41.425Z,1.50
2023-05-14T23:32:13.324Z,1.50
2023-05-14T23:34:45.223Z,1.70
2023-05-14T23:37:17.036Z,1.40
2023-05-14T23:39:48.872Z,1.80
2023-05-14T23:42:20.721Z,1.70
2023-05-14T23:44:52.568Z,1.80
2023-05-14T23:47:24.403Z,1.70
2023-05-14T23:49:56.410Z,1.30
2023-05-14T23:52:28.248Z,1.40
2023-05-14T23:55:00.160Z,2.50
2023-05-14T23:57:32.074Z,1.40
